createdAt,value
2023-08-25T00:02:02.694Z,19.00
2023-08-25T00:04:31.528Z,19.00
2023-08-25T00:07:01.680Z,18.90
2023-08-25T00:09:29.835Z,18.90
2023-08-25T00:11:57.929Z,18.90
2023-08-25T00:14:26.191Z,18.90
2023-08-25T00:16:54.573Z,18.90
2023-08-25T00:19:24.074Z,19.00
2023-08-25T00:21:52.209Z,19.00
2023-08-25T00:24:20.360Z,18.90
2023-08-25T00:26:48.694Z,18.90
2023-08-25T00:29:16.879Z,18.90
2023-08-25T00:31:45.606Z,18.90
2023-08-25T00:34:13.842Z,18.90
2023-08-25T00:36:43.379Z,18.80
2023-08-25T00:39:12.348Z,18.80
2023-08-25T00:41:40.487Z,18.80
2023-08-25T00:44:08.623Z,18.80
2023-08-25T00:46:36.859Z,18.80
2023-08-25T00:49:06.563Z,18.70
2023-08-25T00:51:35.077Z,18.70
2023-08-25T00:54:05.685Z,18.70
2023-08-25T00:56:34.572Z,18.70
2023-08-25T00:59:03.890Z,18.70
2023-08-25T01:01:32.160Z,18.60
2023-08-25T01:04:00.320Z,18.70
2023-08-25T01:06:28.486Z,18.70
2023-08-25T01:08:56.963Z,18.70
2023-08-25T01:11:41.005Z,18.70
2023-08-25T01:14:21.526Z,18.70
2023-08-25T01:16:58.350Z,18.70
2023-08-25T01:19:56.778Z,18.70
2023-08-25T01:22:32.779Z,18.70
2023-08-25T01:25:20.166Z,18.70
2023-08-25T01:27:50.384Z,18.70
2023-08-25T01:30:19.235Z,18.60
2023-08-25T01:32:47.426Z,18.60
2023-08-25T01:35:16.985Z,18.60
2023-08-25T01:38:02.622Z,18.60
2023-08-25T01:40:38.649Z,18.60
2023-08-25T01:43:10.655Z,18.50
2023-08-25T01:45:38.995Z,18.50
2023-08-25T01:48:08.775Z,18.40
2023-08-25T01:50:39.294Z,18.40
2023-08-25T01:53:08.411Z,18.40
2023-08-25T01:55:38.023Z,18.40
2023-08-25T01:58:06.509Z,18.40
2023-08-25T02:00:34.658Z,18.40
2023-08-25T02:03:02.809Z,18.30
2023-08-25T02:05:31.154Z,18.30
2023-08-25T02:07:59.466Z,18.30
2023-08-25T02:10:27.634Z,18.30
2023-08-25T02:12:57.175Z,18.30
2023-08-25T02:15:25.513Z,18.20
2023-08-25T02:17:53.866Z,18.20
2023-08-25T02:20:22.227Z,18.30
2023-08-25T02:22:50.454Z,18.20
2023-08-25T02:25:18.767Z,18.20
2023-08-25T02:27:46.969Z,18.20
2023-08-25T02:30:17.138Z,18.20
2023-08-25T02:32:45.371Z,18.10
2023-08-25T02:35:13.545Z,18.10
2023-08-25T02:37:59.087Z,18.10
2023-08-25T02:40:27.460Z,18.10
2023-08-25T02:42:56.807Z,18.10
2023-08-25T02:45:26.965Z,18.10
2023-08-25T02:47:56.493Z,18.10
2023-08-25T02:50:25.456Z,18.10
2023-08-25T02:52:54.101Z,18.10
2023-08-25T02:55:24.136Z,18.10
2023-08-25T02:57:53.821Z,18.00
2023-08-25T03:00:24.740Z,18.00
2023-08-25T03:02:55.081Z,18.00
2023-08-25T03:05:23.906Z,18.00
2023-08-25T03:07:53.904Z,18.00
2023-08-25T03:10:22.718Z,18.00
2023-08-25T03:12:51.271Z,17.90
2023-08-25T03:15:19.615Z,17.90
2023-08-25T03:17:47.970Z,17.90
2023-08-25T03:20:19.994Z,17.90
2023-08-25T03:22:48.224Z,17.90
2023-08-25T03:25:16.431Z,17.80
2023-08-25T03:27:44.672Z,17.80
2023-08-25T03:30:13.660Z,17.80
2023-08-25T03:32:41.845Z,17.80
2023-08-25T03:35:11.122Z,17.80
2023-08-25T03:37:40.669Z,17.80
2023-08-25T03:40:11.418Z,17.80
2023-08-25T03:42:40.063Z,17.80
2023-08-25T03:45:09.821Z,17.70
2023-08-25T03:47:38.325Z,17.80
2023-08-25T03:50:08.836Z,17.70
2023-08-25T03:52:37.637Z,17.70
2023-08-25T03:55:07.773Z,17.70
2023-08-25T03:57:35.978Z,17.70
2023-08-25T04:00:05.897Z,17.70
2023-08-25T04:02:41.491Z,17.60
2023-08-25T04:05:10.090Z,17.60
2023-08-25T04:07:38.454Z,17.70
2023-08-25T04:10:10.025Z,17.60
2023-08-25T04:12:38.249Z,17.60
2023-08-25T04:15:07.537Z,17.60
2023-08-25T04:17:36.036Z,17.60
2023-08-25T04:20:04.523Z,17.60
2023-08-25T04:22:33.042Z,17.60
2023-08-25T04:25:01.748Z,17.60
2023-08-25T04:27:31.872Z,17.60
2023-08-25T04:30:00.051Z,17.60
2023-08-25T04:32:30.715Z,17.60
2023-08-25T04:35:01.056Z,17.60
2023-08-25T04:37:29.928Z,17.70
2023-08-25T04:39:59.119Z,17.70
2023-08-25T04:42:28.414Z,17.60
2023-08-25T04:44:57.835Z,17.70
2023-08-25T04:47:27.212Z,17.70
2023-08-25T04:49:58.934Z,17.60
2023-08-25T04:52:27.987Z,17.60
2023-08-25T04:54:56.130Z,17.60
2023-08-25T04:57:25.160Z,17.60
2023-08-25T04:59:53.343Z,17.60
2023-08-25T05:02:23.433Z,17.60
2023-08-25T05:04:53.522Z,17.60
2023-08-25T05:07:23.579Z,17.60
2023-08-25T05:09:54.422Z,17.60
2023-08-25T05:12:22.797Z,17.70
2023-08-25T05:14:52.680Z,17.70
2023-08-25T05:17:20.878Z,17.70
2023-08-25T05:19:54.216Z,17.80
2023-08-25T05:22:22.464Z,17.90
2023-08-25T05:24:50.593Z,17.90
2023-08-25T05:27:19.141Z,18.00
2023-08-25T05:29:48.092Z,18.10
2023-08-25T05:32:22.306Z,18.10
2023-08-25T05:34:58.385Z,18.20
2023-08-25T05:37:26.740Z,18.30
2023-08-25T05:39:55.129Z,18.30
2023-08-25T05:42:28.919Z,18.40
2023-08-25T05:44:57.258Z,18.60
2023-08-25T05:47:25.423Z,18.60
2023-08-25T05:49:53.605Z,18.70
2023-08-25T05:52:23.818Z,18.90
2023-08-25T05:54:52.545Z,19.00
2023-08-25T05:57:20.728Z,19.10
2023-08-25T05:59:49.526Z,19.20
2023-08-25T06:02:17.650Z,19.30
2023-08-25T06:04:46.240Z,19.40
2023-08-25T06:07:15.066Z,19.50
2023-08-25T06:09:44.626Z,19.70
2023-08-25T06:12:13.682Z,19.80
2023-08-25T06:14:42.231Z,19.90
2023-08-25T06:17:10.587Z,20.10
2023-08-25T06:19:39.120Z,20.10
2023-08-25T06:22:07.239Z,20.20
2023-08-25T06:24:35.642Z,20.40
2023-08-25T06:27:05.502Z,20.40
2023-08-25T06:29:33.604Z,20.50
2023-08-25T06:32:01.705Z,20.50
2023-08-25T06:34:30.248Z,20.50
2023-08-25T06:36:58.346Z,20.60
2023-08-25T06:39:27.178Z,20.70
2023-08-25T06:41:55.410Z,20.80
2023-08-25T06:44:28.409Z,20.90
2023-08-25T06:46:58.458Z,21.10
2023-08-25T06:49:28.790Z,21.20
2023-08-25T06:51:56.908Z,21.20
2023-08-25T06:54:26.678Z,21.30
2023-08-25T06:56:55.424Z,21.40
2023-08-25T06:59:23.885Z,21.40
2023-08-25T07:01:53.894Z,21.50
2023-08-25T07:04:22.269Z,21.60
2023-08-25T07:06:50.929Z,21.50
2023-08-25T07:09:19.703Z,21.60
2023-08-25T07:11:47.874Z,21.70
2023-08-25T07:14:16.475Z,21.80
2023-08-25T07:16:45.167Z,21.90
2023-08-25T07:19:18.015Z,22.00
2023-08-25T07:21:46.155Z,22.10
2023-08-25T07:24:14.290Z,22.30
2023-08-25T07:26:42.861Z,22.40
2023-08-25T07:29:11.005Z,22.40
2023-08-25T07:31:39.917Z,22.50
2023-08-25T07:34:08.059Z,22.70
2023-08-25T07:36:38.317Z,22.80
2023-08-25T07:39:06.844Z,22.90
2023-08-25T07:41:34.968Z,23.00
2023-08-25T07:44:03.786Z,23.20
2023-08-25T07:46:38.954Z,23.50
2023-08-25T07:49:09.418Z,23.70
2023-08-25T07:51:40.964Z,23.90
2023-08-25T07:54:10.187Z,23.90
2023-08-25T07:56:38.984Z,23.90
2023-08-25T07:59:07.791Z,23.90
2023-08-25T08:01:36.277Z,23.80
2023-08-25T08:04:06.059Z,23.80
2023-08-25T08:06:36.690Z,23.80
2023-08-25T08:09:08.100Z,23.90
2023-08-25T08:11:36.841Z,24.00
2023-08-25T08:14:05.516Z,24.10
2023-08-25T08:16:37.865Z,24.20
2023-08-25T08:19:07.261Z,24.40
2023-08-25T08:21:35.967Z,24.60
2023-08-25T08:24:05.254Z,24.70
2023-08-25T08:26:34.785Z,24.80
2023-08-25T08:29:04.022Z,24.70
2023-08-25T08:31:32.685Z,24.70
2023-08-25T08:34:01.256Z,24.60
2023-08-25T08:36:29.815Z,24.50
2023-08-25T08:38:59.239Z,24.40
2023-08-25T08:41:28.556Z,24.30
2023-08-25T08:44:02.501Z,24.20
2023-08-25T08:46:36.095Z,24.10
2023-08-25T08:49:05.135Z,23.90
2023-08-25T08:51:33.556Z,23.90
2023-08-25T08:54:06.293Z,23.80
2023-08-25T08:56:35.211Z,23.80
2023-08-25T08:59:05.280Z,23.70
2023-08-25T09:01:34.881Z,23.70
2023-08-25T09:04:07.281Z,23.60
2023-08-25T09:06:38.845Z,23.50
2023-08-25T09:09:10.100Z,23.40
2023-08-25T09:11:38.750Z,23.30
2023-08-25T09:14:08.791Z,23.30
2023-08-25T09:16:37.952Z,23.20
2023-08-25T09:19:07.745Z,23.20
2023-08-25T09:21:35.957Z,23.20
2023-08-25T09:24:05.598Z,23.20
2023-08-25T09:26:38.342Z,23.30
2023-08-25T09:29:08.067Z,23.50
2023-08-25T09:31:36.592Z,23.50
2023-08-25T09:34:06.790Z,23.50
2023-08-25T09:36:35.794Z,23.60
2023-08-25T09:39:07.552Z,23.80
2023-08-25T09:41:36.901Z,23.90
2023-08-25T09:44:05.456Z,24.00
2023-08-25T09:46:35.896Z,24.10
2023-08-25T09:49:05.566Z,24.10
2023-08-25T09:51:38.597Z,24.10
2023-08-25T09:54:10.456Z,24.10
2023-08-25T09:56:40.885Z,24.00
2023-08-25T09:59:11.495Z,23.90
2023-08-25T10:01:42.839Z,23.80
2023-08-25T10:04:11.859Z,23.70
2023-08-25T10:06:42.208Z,23.60
2023-08-25T10:09:11.101Z,23.50
2023-08-25T10:11:41.770Z,23.50
2023-08-25T10:14:11.868Z,23.60
2023-08-25T10:16:44.540Z,23.60
2023-08-25T10:19:16.285Z,23.50
2023-08-25T10:21:47.202Z,23.60
2023-08-25T10:24:20.006Z,23.60
2023-08-25T10:26:50.170Z,23.70
2023-08-25T10:29:20.339Z,23.60
2023-08-25T10:31:53.528Z,23.60
2023-08-25T10:34:38.711Z,23.60
2023-08-25T10:37:08.744Z,23.50
2023-08-25T10:39:54.019Z,23.50
2023-08-25T10:42:26.532Z,23.40
2023-08-25T10:44:56.886Z,23.30
2023-08-25T10:47:29.097Z,23.20
2023-08-25T10:50:01.667Z,23.10
2023-08-25T10:52:29.991Z,23.00
2023-08-25T10:54:58.319Z,22.90
2023-08-25T10:57:42.846Z,22.80
2023-08-25T11:00:31.704Z,22.70
2023-08-25T11:03:02.796Z,22.70
2023-08-25T11:05:46.493Z,22.60
2023-08-25T11:08:30.803Z,22.60
2023-08-25T11:11:19.789Z,22.60
2023-08-25T11:13:47.988Z,22.70
2023-08-25T11:16:16.416Z,22.80
2023-08-25T11:18:46.401Z,22.90
2023-08-25T11:21:15.851Z,23.20
2023-08-25T11:23:45.406Z,23.30
2023-08-25T11:26:18.078Z,23.40
2023-08-25T11:28:49.785Z,23.50
2023-08-25T11:31:18.919Z,23.60
2023-08-25T11:33:48.870Z,23.60
2023-08-25T11:36:20.436Z,23.50
2023-08-25T11:38:51.392Z,23.60
2023-08-25T11:41:20.767Z,23.60
2023-08-25T11:43:49.546Z,23.70
2023-08-25T11:46:19.384Z,23.70
2023-08-25T11:48:52.174Z,23.70
2023-08-25T11:51:21.213Z,23.70
2023-08-25T11:53:49.582Z,23.70
2023-08-25T11:56:20.608Z,23.70
2023-08-25T11:58:50.266Z,23.70
2023-08-25T12:01:18.789Z,23.70
2023-08-25T12:03:48.574Z,23.80
2023-08-25T12:06:18.086Z,23.90
2023-08-25T12:08:51.155Z,23.90
2023-08-25T12:11:19.334Z,23.90
2023-08-25T12:13:49.417Z,23.90
2023-08-25T12:16:21.189Z,23.80
2023-08-25T12:18:54.054Z,23.70
2023-08-25T12:21:24.313Z,23.70
2023-08-25T12:23:52.899Z,23.70
2023-08-25T12:26:20.989Z,23.80
2023-08-25T12:28:49.317Z,23.70
2023-08-25T12:31:18.135Z,23.80
2023-08-25T12:33:46.479Z,23.80
2023-08-25T12:36:14.885Z,23.70
2023-08-25T12:38:44.716Z,23.70
2023-08-25T12:41:12.891Z,23.70
2023-08-25T12:43:41.436Z,23.60
2023-08-25T12:46:09.670Z,23.60
2023-08-25T12:48:38.559Z,23.50
2023-08-25T12:51:06.953Z,23.30
2023-08-25T12:53:35.347Z,23.30
2023-08-25T12:56:05.437Z,23.20
2023-08-25T12:58:36.523Z,23.20
2023-08-25T13:01:08.431Z,23.20
2023-08-25T13:03:37.336Z,23.10
2023-08-25T13:06:05.709Z,23.10
2023-08-25T13:08:34.641Z,22.90
2023-08-25T13:11:05.295Z,22.90
2023-08-25T13:13:33.700Z,22.70
2023-08-25T13:16:01.943Z,22.70
2023-08-25T13:18:30.842Z,22.60
2023-08-25T13:20:59.064Z,22.60
2023-08-25T13:23:38.991Z,22.60
2023-08-25T13:26:11.360Z,22.60
2023-08-25T13:28:39.539Z,22.60
2023-08-25T13:31:26.953Z,22.60
2023-08-25T13:33:55.262Z,22.60
2023-08-25T13:36:23.611Z,22.60
2023-08-25T13:38:51.713Z,22.60
2023-08-25T13:41:21.449Z,22.70
2023-08-25T13:43:49.794Z,22.80
2023-08-25T13:46:18.416Z,23.10
2023-08-25T13:48:46.586Z,23.20
2023-08-25T13:51:14.731Z,23.50
2023-08-25T13:53:44.205Z,23.60
2023-08-25T13:56:12.765Z,23.70
2023-08-25T13:58:43.023Z,23.90
2023-08-25T14:01:11.235Z,23.90
2023-08-25T14:03:39.990Z,24.10
2023-08-25T14:06:10.897Z,24.10
2023-08-25T14:08:40.695Z,24.20
2023-08-25T14:11:11.357Z,24.30
2023-08-25T14:13:39.522Z,24.40
2023-08-25T14:16:10.241Z,24.50
2023-08-25T14:18:38.680Z,24.50
2023-08-25T14:21:06.775Z,24.60
2023-08-25T14:23:35.350Z,24.30
2023-08-25T14:26:03.527Z,24.30
2023-08-25T14:28:31.700Z,24.20
2023-08-25T14:31:00.382Z,24.10
2023-08-25T14:33:29.825Z,24.10
2023-08-25T14:35:59.715Z,24.30
2023-08-25T14:38:29.881Z,24.50
2023-08-25T14:40:58.057Z,24.50
2023-08-25T14:43:26.212Z,24.30
2023-08-25T14:45:54.465Z,24.50
2023-08-25T14:48:23.140Z,24.70
2023-08-25T14:50:59.825Z,24.70
2023-08-25T14:53:28.353Z,24.70
2023-08-25T14:55:56.740Z,24.50
2023-08-25T14:58:25.490Z,24.50
2023-08-25T15:00:56.254Z,24.30
2023-08-25T15:06:12.748Z,24.40
2023-08-25T15:08:40.933Z,24.50
2023-08-25T15:11:09.066Z,24.60
2023-08-25T15:13:37.190Z,24.80
2023-08-25T15:16:05.840Z,25.00
2023-08-25T15:18:36.606Z,25.00
2023-08-25T15:21:06.447Z,24.80
2023-08-25T15:23:36.502Z,24.70
2023-08-25T15:26:05.248Z,24.50
2023-08-25T15:28:34.044Z,24.10
2023-08-25T15:31:05.519Z,23.90
2023-08-25T15:33:34.434Z,23.60
2023-08-25T15:36:04.052Z,23.50
2023-08-25T15:38:32.401Z,23.50
2023-08-25T15:41:07.177Z,23.40
2023-08-25T15:43:35.597Z,23.30
2023-08-25T15:46:04.363Z,23.20
2023-08-25T15:48:33.248Z,23.20
2023-08-25T15:51:01.391Z,23.20
2023-08-25T15:53:29.685Z,23.20
2023-08-25T15:55:57.899Z,23.30
2023-08-25T15:58:27.355Z,23.40
2023-08-25T16:01:00.490Z,23.60
2023-08-25T16:03:29.456Z,23.80
2023-08-25T16:05:58.558Z,23.90
2023-08-25T16:08:27.723Z,23.90
2023-08-25T16:11:03.898Z,24.00
2023-08-25T16:13:35.544Z,23.90
2023-08-25T16:16:04.768Z,23.90
2023-08-25T16:18:33.201Z,23.80
2023-08-25T16:21:02.982Z,23.70
2023-08-25T16:23:34.060Z,23.70
2023-08-25T16:26:02.315Z,23.60
2023-08-25T16:31:17.600Z,23.50
2023-08-25T16:33:45.910Z,23.40
2023-08-25T16:36:14.632Z,23.40
2023-08-25T16:38:42.806Z,23.30
2023-08-25T16:41:11.408Z,23.30
2023-08-25T16:43:39.590Z,23.30
2023-08-25T16:46:08.226Z,23.30
2023-08-25T16:48:37.778Z,23.20
2023-08-25T16:51:05.972Z,23.20
2023-08-25T16:53:34.147Z,23.10
2023-08-25T16:56:02.382Z,23.00
2023-08-25T16:58:30.635Z,22.90
2023-08-25T17:00:59.290Z,22.80
2023-08-25T17:03:29.448Z,22.80
2023-08-25T17:06:02.823Z,22.70
2023-08-25T17:08:32.882Z,22.60
2023-08-25T17:11:05.699Z,22.50
2023-08-25T17:13:34.808Z,22.30
2023-08-25T17:16:05.358Z,22.20
2023-08-25T17:18:33.587Z,22.10
2023-08-25T17:21:03.870Z,22.00
2023-08-25T17:23:32.361Z,21.90
2023-08-25T17:26:00.529Z,21.90
2023-08-25T17:28:29.175Z,21.90
2023-08-25T17:31:07.099Z,21.90
2023-08-25T17:33:35.455Z,21.90
2023-08-25T17:36:11.264Z,21.80
2023-08-25T17:38:39.624Z,21.80
2023-08-25T17:41:11.411Z,21.80
2023-08-25T17:43:41.232Z,21.80
2023-08-25T17:46:09.456Z,21.80
2023-08-25T17:48:38.116Z,21.80
2023-08-25T17:51:07.697Z,21.70
2023-08-25T17:53:36.458Z,21.70
2023-08-25T17:56:04.914Z,21.70
2023-08-25T17:58:33.248Z,21.70
2023-08-25T18:01:01.912Z,21.60
2023-08-25T18:03:30.403Z,21.60
2023-08-25T18:05:58.701Z,21.60
2023-08-25T18:08:28.544Z,21.50
2023-08-25T18:10:57.614Z,21.50
2023-08-25T18:13:26.301Z,21.50
2023-08-25T18:15:56.235Z,21.50
2023-08-25T18:18:24.819Z,21.50
2023-08-25T18:20:58.985Z,21.50
2023-08-25T18:23:32.019Z,21.50
2023-08-25T18:26:01.950Z,21.40
2023-08-25T18:28:30.148Z,21.40
2023-08-25T18:31:00.953Z,21.40
2023-08-25T18:33:30.069Z,21.40
2023-08-25T18:35:58.648Z,21.40
2023-08-25T18:38:27.451Z,21.40
2023-08-25T18:40:56.914Z,21.40
2023-08-25T18:43:25.542Z,21.40
2023-08-25T18:45:54.655Z,21.30
2023-08-25T18:48:22.829Z,21.40
2023-08-25T18:50:51.345Z,21.30
2023-08-25T18:53:20.494Z,21.30
2023-08-25T18:55:50.408Z,21.20
2023-08-25T18:58:19.872Z,21.20
2023-08-25T19:00:51.283Z,21.20
2023-08-25T19:03:21.035Z,21.10
2023-08-25T19:05:51.245Z,21.20
2023-08-25T19:08:20.066Z,21.10
2023-08-25T19:10:48.298Z,21.20
2023-08-25T19:13:17.942Z,21.10
2023-08-25T19:15:57.091Z,21.10
2023-08-25T19:18:25.386Z,21.10
2023-08-25T19:21:00.553Z,21.10
2023-08-25T19:23:29.562Z,21.00
2023-08-25T19:25:58.882Z,21.00
2023-08-25T19:28:28.560Z,21.00
2023-08-25T19:31:02.979Z,21.00
2023-08-25T19:33:31.448Z,20.90
2023-08-25T19:36:00.395Z,20.90
2023-08-25T19:38:29.214Z,20.80
2023-08-25T19:40:57.842Z,20.80
2023-08-25T19:43:25.980Z,20.80
2023-08-25T19:45:54.442Z,20.70
2023-08-25T19:48:24.005Z,20.60
2023-08-25T19:50:56.657Z,20.60
2023-08-25T19:53:25.115Z,20.60
2023-08-25T19:55:53.344Z,20.60
2023-08-25T19:58:22.864Z,20.60
2023-08-25T20:00:51.216Z,20.50
2023-08-25T20:03:19.592Z,20.50
2023-08-25T20:06:02.440Z,20.50
2023-08-25T20:08:31.035Z,20.50
2023-08-25T20:13:49.075Z,20.40
2023-08-25T20:16:17.636Z,20.40
2023-08-25T20:18:45.840Z,20.40
2023-08-25T20:21:15.311Z,20.40
2023-08-25T20:23:43.738Z,20.40
2023-08-25T20:26:11.930Z,20.30
2023-08-25T20:28:40.685Z,20.30
2023-08-25T20:31:09.231Z,20.30
2023-08-25T20:33:37.527Z,20.30
2023-08-25T20:36:06.237Z,20.30
2023-08-25T20:38:36.029Z,20.30
2023-08-25T20:41:06.885Z,20.30
2023-08-25T20:43:39.012Z,20.30
2023-08-25T20:46:13.802Z,20.30
2023-08-25T20:48:44.424Z,20.20
2023-08-25T20:51:12.928Z,20.10
2023-08-25T20:53:42.785Z,20.10
2023-08-25T20:56:12.051Z,20.10
2023-08-25T20:58:40.305Z,20.10
2023-08-25T21:01:10.564Z,20.00
2023-08-25T21:03:39.471Z,20.00
2023-08-25T21:06:08.155Z,20.00
2023-08-25T21:08:37.265Z,20.00
2023-08-25T21:11:06.905Z,20.00
2023-08-25T21:13:35.307Z,20.00
2023-08-25T21:16:03.687Z,20.00
2023-08-25T21:18:31.933Z,20.00
2023-08-25T21:21:01.297Z,20.00
2023-08-25T21:23:30.284Z,20.00
2023-08-25T21:26:00.865Z,20.10
2023-08-25T21:28:31.192Z,20.00
2023-08-25T21:31:01.438Z,20.00
2023-08-25T21:33:32.901Z,20.00
2023-08-25T21:36:01.072Z,19.90
2023-08-25T21:38:29.920Z,19.80
2023-08-25T21:41:00.205Z,19.80
2023-08-25T21:43:30.149Z,19.70
2023-08-25T21:45:58.340Z,19.70
2023-08-25T21:48:26.660Z,19.60
2023-08-25T21:50:54.992Z,19.60
2023-08-25T21:53:23.249Z,19.50
2023-08-25T21:55:51.321Z,19.50
2023-08-25T21:58:20.545Z,19.40
2023-08-25T22:00:50.283Z,19.40
2023-08-25T22:03:18.893Z,19.50
2023-08-25T22:05:47.331Z,19.50
2023-08-25T22:08:16.021Z,19.50
2023-08-25T22:10:44.672Z,19.60
2023-08-25T22:13:13.560Z,19.60
2023-08-25T22:15:41.856Z,19.60
2023-08-25T22:18:12.194Z,19.70
2023-08-25T22:20:40.322Z,19.70
2023-08-25T22:23:08.519Z,19.70
2023-08-25T22:25:37.280Z,19.80
2023-08-25T22:28:05.981Z,19.80
2023-08-25T22:30:34.222Z,19.80
2023-08-25T22:35:36.711Z,19.80
2023-08-25T22:38:05.320Z,19.90
2023-08-25T22:40:33.455Z,19.90
2023-08-25T22:43:02.338Z,19.90
2023-08-25T22:45:30.531Z,19.90
2023-08-25T22:48:00.152Z,19.90
2023-08-25T22:50:29.476Z,20.00
2023-08-25T22:52:59.065Z,20.00
2023-08-25T22:55:28.382Z,20.00
2023-08-25T22:57:56.998Z,20.00
2023-08-25T23:00:25.613Z,20.00
2023-08-25T23:02:54.382Z,19.90
2023-08-25T23:05:22.570Z,19.90
2023-08-25T23:07:50.715Z,19.80
2023-08-25T23:10:20.343Z,19.80
2023-08-25T23:12:48.489Z,19.80
2023-08-25T23:15:17.027Z,19.80
2023-08-25T23:17:45.234Z,19.80
2023-08-25T23:20:13.778Z,19.90
2023-08-25T23:22:42.079Z,19.90
2023-08-25T23:25:11.375Z,19.90
2023-08-25T23:27:40.872Z,19.90
2023-08-25T23:30:10.175Z,19.90
2023-08-25T23:32:38.298Z,19.90
2023-08-25T23:35:07.424Z,20.00
2023-08-25T23:37:36.619Z,19.90
2023-08-25T23:40:06.016Z,20.00
2023-08-25T23:42:34.492Z,20.00
2023-08-25T23:45:05.137Z,20.00
2023-08-25T23:47:33.855Z,20.00
2023-08-25T23:50:02.398Z,20.00
2023-08-25T23:52:30.997Z,20.00
2023-08-25T23:54:59.126Z,20.00
2023-08-25T23:57:28.053Z,19.90
2023-08-25T23:59:56.590Z,19.90
